createdAt,value
2022-09-10T00:00:47.379Z,12.50
2022-09-10T00:03:13.836Z,12.57
2022-09-10T00:05:41.161Z,12.57
2022-09-10T00:08:08.025Z,12.53
2022-09-10T00:10:38.363Z,12.46
2022-09-10T00:13:04.703Z,12.58
2022-09-10T00:15:31.070Z,12.68
2022-09-10T00:17:57.376Z,12.71
2022-09-10T00:20:24.228Z,12.59
2022-09-10T00:22:50.624Z,12.67
2022-09-10T00:25:16.980Z,12.63
2022-09-10T00:27:43.316Z,12.68
2022-09-10T00:30:09.868Z,12.81
2022-09-10T00:32:38.188Z,12.87
2022-09-10T00:35:04.796Z,12.88
2022-09-10T00:37:31.136Z,12.83
2022-09-10T00:39:57.473Z,12.79
2022-09-10T00:42:23.825Z,12.78
2022-09-10T00:44:55.637Z,12.74
2022-09-10T00:47:24.128Z,12.78
2022-09-10T00:49:55.053Z,12.76
2022-09-10T00:52:22.528Z,12.78
2022-09-10T00:54:49.503Z,12.70
2022-09-10T00:57:18.726Z,12.70
2022-09-10T00:59:47.770Z,12.73
2022-09-10T01:02:14.853Z,12.85
2022-09-10T01:04:42.322Z,12.78
2022-09-10T01:07:10.896Z,12.74
2022-09-10T01:09:38.254Z,12.83
2022-09-10T01:12:37.777Z,12.86
2022-09-10T01:15:10.496Z,12.67
2022-09-10T01:17:45.538Z,12.56
2022-09-10T01:20:15.608Z,12.70
2022-09-10T01:23:01.171Z,12.79
2022-09-10T01:25:27.590Z,12.71
2022-09-10T01:27:55.770Z,12.62
2022-09-10T01:30:31.144Z,12.66
2022-09-10T01:33:07.631Z,12.45
2022-09-10T01:35:46.531Z,12.27
2022-09-10T01:38:15.432Z,12.30
2022-09-10T01:40:42.637Z,12.33
2022-09-10T01:43:12.235Z,12.29
2022-09-10T01:46:09.236Z,12.34
2022-09-10T01:48:54.616Z,12.46
2022-09-10T01:51:24.028Z,12.49
2022-09-10T01:53:58.474Z,12.43
2022-09-10T01:56:24.767Z,12.43
2022-09-10T01:58:54.527Z,12.44
2022-09-10T02:01:40.504Z,12.50
2022-09-10T02:04:09.071Z,12.46
2022-09-10T02:06:39.796Z,12.49
2022-09-10T02:09:07.250Z,12.57
2022-09-10T02:11:48.936Z,12.52
2022-09-10T02:14:34.220Z,12.41
2022-09-10T02:17:24.160Z,12.37
2022-09-10T02:19:53.941Z,12.37
2022-09-10T02:22:23.691Z,12.41
2022-09-10T02:24:51.343Z,12.46
2022-09-10T02:27:17.917Z,12.42
2022-09-10T02:29:44.236Z,12.47
2022-09-10T02:32:10.592Z,12.47
2022-09-10T02:34:36.923Z,12.46
2022-09-10T02:37:03.598Z,12.42
2022-09-10T02:39:30.520Z,12.41
2022-09-10T02:41:58.588Z,12.46
2022-09-10T02:44:27.165Z,12.52
2022-09-10T02:46:54.233Z,12.47
2022-09-10T02:49:21.085Z,12.44
2022-09-10T02:51:49.022Z,12.50
2022-09-10T02:54:15.373Z,12.42
2022-09-10T02:56:43.246Z,12.42
2022-09-10T02:59:09.733Z,12.35
2022-09-10T03:01:36.373Z,12.56
2022-09-10T03:04:05.023Z,12.49
2022-09-10T03:06:31.793Z,12.31
2022-09-10T03:08:58.144Z,12.34
2022-09-10T03:11:27.352Z,12.41
2022-09-10T03:13:54.616Z,12.44
2022-09-10T03:16:23.842Z,12.48
2022-09-10T03:18:51.890Z,12.54
2022-09-10T03:21:20.105Z,12.54
2022-09-10T03:23:47.066Z,12.48
2022-09-10T03:26:15.532Z,12.46
2022-09-10T03:28:43.525Z,12.47
2022-09-10T03:31:11.930Z,12.51
2022-09-10T03:33:42.756Z,12.45
2022-09-10T03:36:09.885Z,12.51
2022-09-10T03:38:36.345Z,12.39
2022-09-10T03:41:02.932Z,12.35
2022-09-10T03:43:29.871Z,12.25
2022-09-10T03:45:57.185Z,12.32
2022-09-10T03:48:24.029Z,12.43
2022-09-10T03:50:51.174Z,12.46
2022-09-10T03:53:18.613Z,12.36
2022-09-10T03:55:45.674Z,12.49
2022-09-10T03:58:12.375Z,12.48
2022-09-10T04:00:38.889Z,12.44
2022-09-10T04:03:06.689Z,12.42
2022-09-10T04:05:33.004Z,12.29
2022-09-10T04:07:59.855Z,12.16
2022-09-10T04:10:26.910Z,12.11
2022-09-10T04:12:53.450Z,12.09
2022-09-10T04:15:20.544Z,12.18
2022-09-10T04:17:48.148Z,12.09
2022-09-10T04:20:14.793Z,12.18
2022-09-10T04:22:41.160Z,12.19
2022-09-10T04:25:08.237Z,12.28
2022-09-10T04:27:34.573Z,12.21
2022-09-10T04:30:02.785Z,12.12
2022-09-10T04:32:29.256Z,12.17
2022-09-10T04:34:55.585Z,12.16
2022-09-10T04:37:22.997Z,12.16
2022-09-10T04:39:49.398Z,12.21
2022-09-10T04:42:17.722Z,12.29
2022-09-10T04:44:44.149Z,12.32
2022-09-10T04:47:10.459Z,12.33
2022-09-10T04:49:36.970Z,12.21
2022-09-10T04:52:03.405Z,12.20
2022-09-10T04:54:29.733Z,12.10
2022-09-10T04:56:56.365Z,12.00
2022-09-10T04:59:22.717Z,12.00
2022-09-10T05:01:50.467Z,12.10
2022-09-10T05:04:17.552Z,12.16
2022-09-10T05:06:44.412Z,12.27
2022-09-10T05:09:11.969Z,12.34
2022-09-10T05:11:39.245Z,12.38
2022-09-10T05:14:07.284Z,12.40
2022-09-10T05:16:33.784Z,12.41
2022-09-10T05:19:00.461Z,12.44
2022-09-10T05:21:29.098Z,12.50
2022-09-10T05:23:56.148Z,12.52
2022-09-10T05:26:23.448Z,12.44
2022-09-10T05:28:51.146Z,12.44
2022-09-10T05:31:17.640Z,12.38
2022-09-10T05:33:46.147Z,12.49
2022-09-10T05:36:13.518Z,12.46
2022-09-10T05:38:40.648Z,12.53
2022-09-10T05:41:11.038Z,12.46
2022-09-10T05:43:41.999Z,12.48
2022-09-10T05:46:10.318Z,12.59
2022-09-10T05:48:41.803Z,12.67
2022-09-10T05:51:09.981Z,12.67
2022-09-10T05:53:38.118Z,12.72
2022-09-10T05:56:07.274Z,12.74
2022-09-10T05:58:34.880Z,12.75
2022-09-10T06:01:01.577Z,12.78
2022-09-10T06:03:28.000Z,12.72
2022-09-10T06:05:59.182Z,12.75
2022-09-10T06:08:29.476Z,12.87
2022-09-10T06:11:05.787Z,12.84
2022-09-10T06:13:39.320Z,12.82
2022-09-10T06:16:07.338Z,12.85
2022-09-10T06:18:33.913Z,12.92
2022-09-10T06:21:07.109Z,12.82
2022-09-10T06:23:33.933Z,12.94
2022-09-10T06:26:04.743Z,12.92
2022-09-10T06:28:33.657Z,12.94
2022-09-10T06:31:00.221Z,12.94
2022-09-10T06:33:26.647Z,12.94
2022-09-10T06:35:53.863Z,12.95
2022-09-10T06:38:20.304Z,12.96
2022-09-10T06:40:54.518Z,13.01
2022-09-10T06:43:25.904Z,13.17
2022-09-10T06:46:50.836Z,13.31
2022-09-10T06:49:11.176Z,13.44
2022-09-10T06:51:39.715Z,13.39
2022-09-10T06:54:08.483Z,13.50
2022-09-10T06:56:34.946Z,13.58
2022-09-10T06:59:03.477Z,13.68
2022-09-10T07:01:42.345Z,13.63
2022-09-10T07:04:09.164Z,13.81
2022-09-10T07:06:36.505Z,13.91
2022-09-10T07:09:09.993Z,14.02
2022-09-10T07:11:44.232Z,14.02
2022-09-10T07:14:12.600Z,14.22
2022-09-10T07:16:42.060Z,14.29
2022-09-10T07:19:09.643Z,14.59
2022-09-10T07:21:40.551Z,14.67
2022-09-10T07:24:12.096Z,14.82
2022-09-10T07:26:40.413Z,14.85
2022-09-10T07:29:07.756Z,14.86
2022-09-10T07:31:35.332Z,14.86
2022-09-10T07:34:07.040Z,14.89
2022-09-10T07:36:33.447Z,15.11
2022-09-10T07:39:01.861Z,15.23
2022-09-10T07:41:31.842Z,14.97
2022-09-10T07:43:59.442Z,15.11
2022-09-10T07:46:30.669Z,14.88
2022-09-10T07:48:58.313Z,14.84
2022-09-10T07:51:25.690Z,14.88
2022-09-10T07:53:54.093Z,14.98
2022-09-10T07:56:23.092Z,15.23
2022-09-10T07:58:50.622Z,15.23
2022-09-10T08:01:19.492Z,15.41
2022-09-10T08:03:46.280Z,15.61
2022-09-10T08:06:16.394Z,15.62
2022-09-10T08:08:44.328Z,15.78
2022-09-10T08:11:13.912Z,15.66
2022-09-10T08:13:44.967Z,15.59
2022-09-10T08:16:13.153Z,15.62
2022-09-10T08:18:40.634Z,15.81
2022-09-10T08:21:11.039Z,15.84
2022-09-10T08:23:39.514Z,16.02
2022-09-10T08:26:08.013Z,16.02
2022-09-10T08:28:37.562Z,15.96
2022-09-10T08:31:11.462Z,16.13
2022-09-10T08:33:48.848Z,16.10
2022-09-10T08:36:16.805Z,16.09
2022-09-10T08:38:44.018Z,16.03
2022-09-10T08:41:22.068Z,16.10
2022-09-10T08:44:05.924Z,16.22
2022-09-10T08:46:37.161Z,16.16
2022-09-10T08:49:06.581Z,16.42
2022-09-10T08:51:37.257Z,16.34
2022-09-10T08:54:07.301Z,16.45
2022-09-10T08:56:34.096Z,16.44
2022-09-10T08:59:03.310Z,16.63
2022-09-10T09:01:44.796Z,16.78
2022-09-10T09:04:16.701Z,16.72
2022-09-10T09:06:48.229Z,16.50
2022-09-10T09:09:15.972Z,16.40
2022-09-10T09:11:50.094Z,16.45
2022-09-10T09:14:27.730Z,16.42
2022-09-10T09:17:27.510Z,16.03
2022-09-10T09:19:54.309Z,16.09
2022-09-10T09:22:26.232Z,16.02
2022-09-10T09:24:58.106Z,16.17
2022-09-10T09:27:27.386Z,15.99
2022-09-10T09:30:00.000Z,16.06
2022-09-10T09:32:28.289Z,15.89
2022-09-10T09:35:19.793Z,16.01
2022-09-10T09:37:50.082Z,16.04
2022-09-10T09:40:27.060Z,15.94
2022-09-10T09:42:53.573Z,16.15
2022-09-10T09:45:44.118Z,16.09
2022-09-10T09:48:15.659Z,16.20
2022-09-10T09:50:45.473Z,16.16
2022-09-10T09:53:37.810Z,16.13
2022-09-10T09:56:07.166Z,15.70
2022-09-10T09:58:34.868Z,15.92
2022-09-10T10:01:04.234Z,16.01
2022-09-10T10:03:32.384Z,15.95
2022-09-10T10:06:03.375Z,15.56
2022-09-10T10:08:32.081Z,15.55
2022-09-10T10:10:58.585Z,15.50
2022-09-10T10:13:25.087Z,15.58
2022-09-10T10:15:51.475Z,15.15
2022-09-10T10:18:33.443Z,15.28
2022-09-10T10:21:20.024Z,15.18
2022-09-10T10:23:46.796Z,15.32
2022-09-10T10:26:18.143Z,15.47
2022-09-10T10:28:46.377Z,15.65
2022-09-10T10:31:13.292Z,15.91
2022-09-10T10:33:46.251Z,16.19
2022-09-10T10:36:22.288Z,16.36
2022-09-10T10:38:55.412Z,16.30
2022-09-10T10:41:45.960Z,16.59
2022-09-10T10:44:28.303Z,17.05
2022-09-10T10:47:04.134Z,17.33
2022-09-10T10:49:39.532Z,17.77
2022-09-10T10:52:22.409Z,17.65
2022-09-10T10:54:51.585Z,17.31
2022-09-10T10:57:27.579Z,17.57
2022-09-10T11:00:04.633Z,17.74
2022-09-10T11:02:49.565Z,17.79
2022-09-10T11:05:23.923Z,18.11
2022-09-10T11:07:50.250Z,18.25
2022-09-10T11:10:23.371Z,17.80
2022-09-10T11:12:59.854Z,17.55
2022-09-10T11:15:31.482Z,17.32
2022-09-10T11:18:00.917Z,17.12
2022-09-10T11:20:30.704Z,17.03
2022-09-10T11:23:00.413Z,16.94
2022-09-10T11:25:29.387Z,16.84
2022-09-10T11:28:05.725Z,16.61
2022-09-10T11:30:33.805Z,16.52
2022-09-10T11:33:18.627Z,16.66
2022-09-10T11:35:48.176Z,16.86
2022-09-10T11:38:20.574Z,17.00
2022-09-10T11:40:52.336Z,17.32
2022-09-10T11:43:39.704Z,17.37
2022-09-10T11:46:09.971Z,17.86
2022-09-10T11:48:40.288Z,18.02
2022-09-10T11:51:26.992Z,18.29
2022-09-10T11:53:54.822Z,18.17
2022-09-10T11:56:40.612Z,18.24
2022-09-10T11:59:26.941Z,17.87
2022-09-10T12:02:08.636Z,17.82
2022-09-10T12:04:40.421Z,17.84
2022-09-10T12:07:11.237Z,17.70
2022-09-10T12:09:52.989Z,17.60
2022-09-10T12:12:27.251Z,17.78
2022-09-10T12:14:53.956Z,17.93
2022-09-10T12:17:29.686Z,18.14
2022-09-10T12:19:57.825Z,17.84
2022-09-10T12:22:30.527Z,17.82
2022-09-10T12:25:01.966Z,17.80
2022-09-10T12:27:43.770Z,17.74
2022-09-10T12:30:33.487Z,17.63
2022-09-10T12:33:02.053Z,17.93
2022-09-10T12:35:34.512Z,17.83
2022-09-10T12:38:20.057Z,17.87
2022-09-10T12:40:49.458Z,17.81
2022-09-10T12:43:34.619Z,17.94
2022-09-10T12:46:16.391Z,18.18
2022-09-10T12:48:44.891Z,18.30
2022-09-10T12:51:17.896Z,18.39
2022-09-10T12:53:44.248Z,18.12
2022-09-10T12:56:19.672Z,18.06
2022-09-10T12:58:57.049Z,18.11
2022-09-10T13:01:43.906Z,17.99
2022-09-10T13:04:25.936Z,18.11
2022-09-10T13:06:57.677Z,18.01
2022-09-10T13:09:28.264Z,18.04
2022-09-10T13:11:58.616Z,18.11
2022-09-10T13:14:33.617Z,18.35
2022-09-10T13:17:00.061Z,18.48
2022-09-10T13:19:26.399Z,18.72
2022-09-10T13:21:55.275Z,18.83
2022-09-10T13:24:33.892Z,18.61
2022-09-10T13:27:12.543Z,18.62
2022-09-10T13:29:41.452Z,18.35
2022-09-10T13:32:16.222Z,18.27
2022-09-10T13:35:10.559Z,18.10
2022-09-10T13:37:39.953Z,18.10
2022-09-10T13:40:32.981Z,17.77
2022-09-10T13:43:15.540Z,17.49
2022-09-10T13:45:49.774Z,17.65
2022-09-10T13:48:25.681Z,17.90
2022-09-10T13:51:27.958Z,18.04
2022-09-10T13:53:57.464Z,18.19
2022-09-10T13:56:28.074Z,17.98
2022-09-10T13:59:00.797Z,18.52
2022-09-10T14:01:51.790Z,18.36
2022-09-10T14:04:45.277Z,17.49
2022-09-10T14:07:28.581Z,17.11
2022-09-10T14:10:01.939Z,16.94
2022-09-10T14:12:32.582Z,16.60
2022-09-10T14:15:01.880Z,16.46
2022-09-10T14:17:34.275Z,16.58
2022-09-10T14:20:05.843Z,16.60
2022-09-10T14:22:32.433Z,16.64
2022-09-10T14:25:01.809Z,16.81
2022-09-10T14:27:37.220Z,16.96
2022-09-10T14:30:27.378Z,17.21
2022-09-10T14:32:56.573Z,17.19
2022-09-10T14:35:43.522Z,17.37
2022-09-10T14:38:34.506Z,17.43
2022-09-10T14:41:08.115Z,17.48
2022-09-10T14:43:38.339Z,17.37
2022-09-10T14:46:09.928Z,16.95
2022-09-10T14:48:39.337Z,16.81
2022-09-10T14:51:19.680Z,16.67
2022-09-10T14:53:50.848Z,16.73
2022-09-10T14:56:28.853Z,16.68
2022-09-10T14:58:58.896Z,16.64
2022-09-10T15:01:26.070Z,16.78
2022-09-10T15:03:53.100Z,16.79
2022-09-10T15:06:24.184Z,16.70
2022-09-10T15:08:52.785Z,16.09
2022-09-10T15:11:22.386Z,15.80
2022-09-10T15:13:49.372Z,15.31
2022-09-10T15:16:15.905Z,15.22
2022-09-10T15:18:42.397Z,14.95
2022-09-10T15:21:12.617Z,14.86
2022-09-10T15:23:39.063Z,14.68
2022-09-10T15:26:06.852Z,14.60
2022-09-10T15:28:33.362Z,15.10
2022-09-10T15:31:01.077Z,15.95
2022-09-10T15:33:28.467Z,16.21
2022-09-10T15:35:54.933Z,16.32
2022-09-10T15:38:21.664Z,16.45
2022-09-10T15:40:49.801Z,16.93
2022-09-10T15:43:19.066Z,16.22
2022-09-10T15:45:49.847Z,15.97
2022-09-10T15:48:16.273Z,15.88
2022-09-10T15:50:43.299Z,15.89
2022-09-10T15:53:11.972Z,15.77
2022-09-10T15:55:39.077Z,15.85
2022-09-10T15:58:05.980Z,15.91
2022-09-10T16:00:34.367Z,15.80
2022-09-10T16:03:01.724Z,15.65
2022-09-10T16:05:28.587Z,15.57
2022-09-10T16:07:55.037Z,15.44
2022-09-10T16:10:21.447Z,15.54
2022-09-10T16:12:48.420Z,15.47
2022-09-10T16:15:15.369Z,15.41
2022-09-10T16:17:42.139Z,15.58
2022-09-10T16:20:09.027Z,15.33
2022-09-10T16:22:35.409Z,15.40
2022-09-10T16:25:01.803Z,15.40
2022-09-10T16:27:28.273Z,15.13
2022-09-10T16:29:54.844Z,15.23
2022-09-10T16:32:21.449Z,15.09
2022-09-10T16:34:47.845Z,15.12
2022-09-10T16:37:14.252Z,15.30
2022-09-10T16:39:40.674Z,15.39
2022-09-10T16:42:08.083Z,15.37
2022-09-10T16:44:34.653Z,15.28
2022-09-10T16:47:01.892Z,15.05
2022-09-10T16:49:28.338Z,15.15
2022-09-10T16:51:54.805Z,15.23
2022-09-10T16:54:22.354Z,15.24
2022-09-10T16:56:50.111Z,14.94
2022-09-10T16:59:21.484Z,14.77
2022-09-10T17:01:49.298Z,14.79
2022-09-10T17:04:25.957Z,14.94
2022-09-10T17:06:55.798Z,15.05
2022-09-10T17:09:22.582Z,15.15
2022-09-10T17:11:49.129Z,15.12
2022-09-10T17:14:15.592Z,15.13
2022-09-10T17:16:43.435Z,15.13
2022-09-10T17:19:18.434Z,14.96
2022-09-10T17:21:50.788Z,14.96
2022-09-10T17:24:18.767Z,15.00
2022-09-10T17:26:45.985Z,14.98
2022-09-10T17:29:14.765Z,15.00
2022-09-10T17:31:42.206Z,14.94
2022-09-10T17:34:14.034Z,14.95
2022-09-10T17:36:41.900Z,14.94
2022-09-10T17:39:08.552Z,14.93
2022-09-10T17:41:34.999Z,14.90
2022-09-10T17:44:02.354Z,14.98
2022-09-10T17:46:31.177Z,14.89
2022-09-10T17:48:59.884Z,14.90
2022-09-10T17:51:28.639Z,14.99
2022-09-10T17:53:57.220Z,14.91
2022-09-10T17:56:25.388Z,14.78
2022-09-10T17:58:59.246Z,14.77
2022-09-10T18:01:29.202Z,14.66
2022-09-10T18:03:55.707Z,14.57
2022-09-10T18:06:24.362Z,14.61
2022-09-10T18:08:52.498Z,14.62
2022-09-10T18:11:23.110Z,14.33
2022-09-10T18:13:55.159Z,14.25
2022-09-10T18:16:25.010Z,14.25
2022-09-10T18:18:56.506Z,14.25
2022-09-10T18:21:30.989Z,14.14
2022-09-10T18:24:03.716Z,14.08
2022-09-10T18:26:33.389Z,14.10
2022-09-10T18:29:02.276Z,14.09
2022-09-10T18:31:32.197Z,14.03
2022-09-10T18:34:00.036Z,13.78
2022-09-10T18:36:28.623Z,13.69
2022-09-10T18:38:55.053Z,13.77
2022-09-10T18:41:23.173Z,13.61
2022-09-10T18:43:51.114Z,13.67
2022-09-10T18:46:19.924Z,13.57
2022-09-10T18:48:50.208Z,13.61
2022-09-10T18:51:20.482Z,13.60
2022-09-10T18:53:47.641Z,13.64
2022-09-10T18:56:19.619Z,13.81
2022-09-10T18:58:55.619Z,13.93
2022-09-10T19:01:23.719Z,14.07
2022-09-10T19:03:50.513Z,14.26
2022-09-10T19:06:20.486Z,14.25
2022-09-10T19:08:48.868Z,14.19
2022-09-10T19:11:19.152Z,14.22
2022-09-10T19:13:50.990Z,14.34
2022-09-10T19:16:17.983Z,14.11
2022-09-10T19:18:49.813Z,14.17
2022-09-10T19:21:16.221Z,14.22
2022-09-10T19:23:43.463Z,14.12
2022-09-10T19:26:10.462Z,14.07
2022-09-10T19:28:39.361Z,13.94
2022-09-10T19:31:07.626Z,13.90
2022-09-10T19:33:36.257Z,14.06
2022-09-10T19:36:23.718Z,14.03
2022-09-10T19:38:50.362Z,14.05
2022-09-10T19:41:18.703Z,14.13
2022-09-10T19:43:50.980Z,13.97
2022-09-10T19:46:19.962Z,14.07
2022-09-10T19:48:47.092Z,13.97
2022-09-10T19:51:20.015Z,13.82
2022-09-10T19:53:47.779Z,13.84
2022-09-10T19:56:20.324Z,13.84
2022-09-10T19:58:51.565Z,13.79
2022-09-10T20:01:39.372Z,13.65
2022-09-10T20:04:08.564Z,13.63
2022-09-10T20:06:35.988Z,13.64
2022-09-10T20:09:04.715Z,13.63
2022-09-10T20:11:33.338Z,13.72
2022-09-10T20:14:07.764Z,13.68
2022-09-10T20:16:39.500Z,13.71
2022-09-10T20:19:06.919Z,13.68
2022-09-10T20:21:34.089Z,13.68
2022-09-10T20:24:00.500Z,13.69
2022-09-10T20:26:29.612Z,13.68
2022-09-10T20:28:59.306Z,13.66
2022-09-10T20:31:27.990Z,13.67
2022-09-10T20:33:56.474Z,13.55
2022-09-10T20:36:24.160Z,13.69
2022-09-10T20:38:51.889Z,13.66
2022-09-10T20:41:18.547Z,13.78
2022-09-10T20:43:50.997Z,13.65
2022-09-10T20:46:18.533Z,13.63
2022-09-10T20:48:49.152Z,13.61
2022-09-10T20:51:20.428Z,13.63
2022-09-10T20:53:47.885Z,13.64
2022-09-10T20:56:17.996Z,13.63
2022-09-10T20:58:45.732Z,13.65
2022-09-10T21:01:16.353Z,13.74
2022-09-10T21:03:43.625Z,13.60
2022-09-10T21:06:11.673Z,13.60
2022-09-10T21:08:40.560Z,13.67
2022-09-10T21:11:09.691Z,13.67
2022-09-10T21:13:37.394Z,13.64
2022-09-10T21:16:13.636Z,13.68
2022-09-10T21:18:41.681Z,13.76
2022-09-10T21:21:13.364Z,13.78
2022-09-10T21:23:58.823Z,13.82
2022-09-10T21:26:27.471Z,13.69
2022-09-10T21:28:58.586Z,13.60
2022-09-10T21:31:27.219Z,13.55
2022-09-10T21:34:00.697Z,13.60
2022-09-10T21:36:29.168Z,13.58
2022-09-10T21:38:57.593Z,13.64
2022-09-10T21:41:32.965Z,13.63
2022-09-10T21:44:00.987Z,13.59
2022-09-10T21:46:27.978Z,13.56
2022-09-10T21:48:55.104Z,13.51
2022-09-10T21:51:22.676Z,13.57
2022-09-10T21:53:53.142Z,13.62
2022-09-10T21:56:19.608Z,13.69
2022-09-10T21:58:46.532Z,13.64
2022-09-10T22:01:21.834Z,13.64
2022-09-10T22:03:49.463Z,13.55
2022-09-10T22:06:21.248Z,13.65
2022-09-10T22:08:50.033Z,13.64
2022-09-10T22:11:21.321Z,13.76
2022-09-10T22:13:53.069Z,13.65
2022-09-10T22:16:20.819Z,13.65
2022-09-10T22:18:47.955Z,13.70
2022-09-10T22:21:14.721Z,13.68
2022-09-10T22:23:41.594Z,13.69
2022-09-10T22:26:17.099Z,13.69
2022-09-10T22:28:44.495Z,13.71
2022-09-10T22:31:19.103Z,13.67
2022-09-10T22:33:50.708Z,13.57
2022-09-10T22:36:21.243Z,13.48
2022-09-10T22:38:49.905Z,13.48
2022-09-10T22:41:17.118Z,13.43
2022-09-10T22:43:43.561Z,13.40
2022-09-10T22:46:10.388Z,13.37
2022-09-10T22:48:38.569Z,13.35
2022-09-10T22:51:06.971Z,13.43
2022-09-10T22:53:34.405Z,13.52
2022-09-10T22:56:02.169Z,13.57
2022-09-10T22:58:28.837Z,13.56
2022-09-10T23:00:56.201Z,13.62
2022-09-10T23:03:22.991Z,13.74
2022-09-10T23:05:49.715Z,13.87
2022-09-10T23:08:16.885Z,13.79
2022-09-10T23:10:43.300Z,13.83
2022-09-10T23:13:09.717Z,13.77
2022-09-10T23:15:36.364Z,13.77
2022-09-10T23:18:02.796Z,13.93
2022-09-10T23:20:29.206Z,13.87
2022-09-10T23:22:55.597Z,13.93
2022-09-10T23:25:22.033Z,14.00
2022-09-10T23:27:51.080Z,13.95
2022-09-10T23:30:17.900Z,13.88
2022-09-10T23:32:45.185Z,13.97
2022-09-10T23:35:11.574Z,13.95
2022-09-10T23:37:38.271Z,13.99
2022-09-10T23:40:05.443Z,14.07
2022-09-10T23:42:32.868Z,13.97
2022-09-10T23:44:59.342Z,13.95
2022-09-10T23:47:26.033Z,13.99
2022-09-10T23:49:53.053Z,14.02
2022-09-10T23:52:20.378Z,14.03
2022-09-10T23:54:47.328Z,14.01
2022-09-10T23:57:13.760Z,14.05
2022-09-10T23:59:40.227Z,13.97
